sensor_id;sensor_type;location;lat;lon;timestamp;temperature;humidity
35970;DHT22;22448;51.298;6.430;2024-03-07T00:01:00;4.70;99.90
35970;DHT22;22448;51.298;6.430;2024-03-07T00:03:27;4.60;99.90
35970;DHT22;22448;51.298;6.430;2024-03-07T00:05:55;4.50;99.90
35970;DHT22;22448;51.298;6.430;2024-03-07T00:08:22;4.50;99.90
35970;DHT22;22448;51.298;6.430;2024-03-07T00:10:49;4.50;99.90
35970;DHT22;22448;51.298;6.430;2024-03-07T00:13:16;4.50;99.90
35970;DHT22;22448;51.298;6.430;2024-03-07T00:15:43;4.60;99.90
35970;DHT22;22448;51.298;6.430;2024-03-07T00:18:10;4.50;99.90
35970;DHT22;22448;51.298;6.430;2024-03-07T00:20:38;4.60;99.90
35970;DHT22;22448;51.298;6.430;2024-03-07T00:23:05;4.60;99.90
35970;DHT22;22448;51.298;6.430;2024-03-07T00:25:33;4.60;99.90
35970;DHT22;22448;51.298;6.430;2024-03-07T00:28:00;4.60;99.90
35970;DHT22;22448;51.298;6.430;2024-03-07T00:30:30;4.60;99.90
35970;DHT22;22448;51.298;6.430;2024-03-07T00:32:57;4.70;99.90
35970;DHT22;22448;51.298;6.430;2024-03-07T00:35:25;4.70;99.90
35970;DHT22;22448;51.298;6.430;2024-03-07T00:37:52;4.70;99.90
35970;DHT22;22448;51.298;6.430;2024-03-07T00:40:19;4.70;99.90
35970;DHT22;22448;51.298;6.430;2024-03-07T00:42:46;4.60;99.90
35970;DHT22;22448;51.298;6.430;2024-03-07T00:45:13;4.70;99.90
35970;DHT22;22448;51.298;6.430;2024-03-07T00:47:41;4.60;99.90
35970;DHT22;22448;51.298;6.430;2024-03-07T00:50:08;4.70;99.90
35970;DHT22;22448;51.298;6.430;2024-03-07T00:52:36;4.70;99.90
35970;DHT22;22448;51.298;6.430;2024-03-07T00:55:05;4.60;99.90
35970;DHT22;22448;51.298;6.430;2024-03-07T00:57:32;4.60;99.90
35970;DHT22;22448;51.298;6.430;2024-03-07T00:59:59;4.60;99.90
35970;DHT22;22448;51.298;6.430;2024-03-07T01:02:26;4.60;99.90
35970;DHT22;22448;51.298;6.430;2024-03-07T01:04:53;4.60;99.90
35970;DHT22;22448;51.298;6.430;2024-03-07T01:07:22;4.60;99.90
35970;DHT22;22448;51.298;6.430;2024-03-07T01:09:50;4.50;99.90
35970;DHT22;22448;51.298;6.430;2024-03-07T01:12:18;4.50;99.90
35970;DHT22;22448;51.298;6.430;2024-03-07T01:14:47;4.50;99.90
35970;DHT22;22448;51.298;6.430;2024-03-07T01:17:14;4.40;99.90
35970;DHT22;22448;51.298;6.430;2024-03-07T01:19:42;4.40;99.90
35970;DHT22;22448;51.298;6.430;2024-03-07T01:22:09;4.40;99.90
35970;DHT22;22448;51.298;6.430;2024-03-07T01:24:36;4.30;99.90
35970;DHT22;22448;51.298;6.430;2024-03-07T01:27:04;4.20;99.90
35970;DHT22;22448;51.298;6.430;2024-03-07T01:29:31;4.20;99.90
35970;DHT22;22448;51.298;6.430;2024-03-07T01:31:58;4.20;99.90
35970;DHT22;22448;51.298;6.430;2024-03-07T01:34:25;4.20;99.90
35970;DHT22;22448;51.298;6.430;2024-03-07T01:36:52;4.10;99.90
35970;DHT22;22448;51.298;6.430;2024-03-07T01:39:19;4.10;99.90
35970;DHT22;22448;51.298;6.430;2024-03-07T01:41:47;4.10;99.90
35970;DHT22;22448;51.298;6.430;2024-03-07T01:44:15;4.10;99.90
35970;DHT22;22448;51.298;6.430;2024-03-07T01:46:42;4.00;99.90
35970;DHT22;22448;51.298;6.430;2024-03-07T01:49:09;4.00;99.90
35970;DHT22;22448;51.298;6.430;2024-03-07T01:51:37;4.00;99.90
35970;DHT22;22448;51.298;6.430;2024-03-07T01:54:07;4.00;99.90
35970;DHT22;22448;51.298;6.430;2024-03-07T01:56:36;4.00;99.90
35970;DHT22;22448;51.298;6.430;2024-03-07T01:59:05;3.90;99.90
35970;DHT22;22448;51.298;6.430;2024-03-07T02:01:34;3.90;99.90
35970;DHT22;22448;51.298;6.430;2024-03-07T02:04:03;3.90;99.90
35970;DHT22;22448;51.298;6.430;2024-03-07T02:06:33;3.80;99.90
35970;DHT22;22448;51.298;6.430;2024-03-07T02:09:00;3.80;99.90
35970;DHT22;22448;51.298;6.430;2024-03-07T02:11:29;3.80;99.90
35970;DHT22;22448;51.298;6.430;2024-03-07T02:13:57;3.80;99.90
35970;DHT22;22448;51.298;6.430;2024-03-07T02:16:24;3.70;99.90
35970;DHT22;22448;51.298;6.430;2024-03-07T02:18:51;3.70;99.90
35970;DHT22;22448;51.298;6.430;2024-03-07T02:21:19;3.80;99.90
35970;DHT22;22448;51.298;6.430;2024-03-07T02:23:46;3.70;99.90
35970;DHT22;22448;51.298;6.430;2024-03-07T02:26:13;3.70;99.90
35970;DHT22;22448;51.298;6.430;2024-03-07T02:28:40;3.70;99.90
35970;DHT22;22448;51.298;6.430;2024-03-07T02:31:07;3.70;99.90
35970;DHT22;22448;51.298;6.430;2024-03-07T02:33:34;3.70;99.90
35970;DHT22;22448;51.298;6.430;2024-03-07T02:36:02;3.70;99.90
35970;DHT22;22448;51.298;6.430;2024-03-07T02:38:30;3.60;99.90
35970;DHT22;22448;51.298;6.430;2024-03-07T02:40:57;3.60;99.90
35970;DHT22;22448;51.298;6.430;2024-03-07T02:43:25;3.60;99.90
35970;DHT22;22448;51.298;6.430;2024-03-07T02:45:52;3.60;99.90
35970;DHT22;22448;51.298;6.430;2024-03-07T02:48:19;3.50;99.90
35970;DHT22;22448;51.298;6.430;2024-03-07T02:50:47;3.50;99.90
35970;DHT22;22448;51.298;6.430;2024-03-07T02:53:14;3.50;99.90
35970;DHT22;22448;51.298;6.430;2024-03-07T02:55:42;3.50;99.90
35970;DHT22;22448;51.298;6.430;2024-03-07T02:58:09;3.50;99.90
35970;DHT22;22448;51.298;6.430;2024-03-07T03:00:36;3.50;99.90
35970;DHT22;22448;51.298;6.430;2024-03-07T03:03:03;3.60;99.90
35970;DHT22;22448;51.298;6.430;2024-03-07T03:05:30;3.50;99.90
35970;DHT22;22448;51.298;6.430;2024-03-07T03:07:57;3.50;99.90
35970;DHT22;22448;51.298;6.430;2024-03-07T03:10:25;3.50;99.90
35970;DHT22;22448;51.298;6.430;2024-03-07T03:12:56;3.50;99.90
35970;DHT22;22448;51.298;6.430;2024-03-07T03:15:27;3.40;99.90
35970;DHT22;22448;51.298;6.430;2024-03-07T03:17:54;3.40;99.90
35970;DHT22;22448;51.298;6.430;2024-03-07T03:20:25;3.40;99.90
35970;DHT22;22448;51.298;6.430;2024-03-07T03:22:53;3.40;99.90
35970;DHT22;22448;51.298;6.430;2024-03-07T03:25:41;3.30;99.90
35970;DHT22;22448;51.298;6.430;2024-03-07T03:28:09;3.40;99.90
35970;DHT22;22448;51.298;6.430;2024-03-07T03:30:41;3.30;99.90
35970;DHT22;22448;51.298;6.430;2024-03-07T03:33:09;3.20;99.90
35970;DHT22;22448;51.298;6.430;2024-03-07T03:35:37;3.20;99.90
35970;DHT22;22448;51.298;6.430;2024-03-07T03:38:05;3.10;99.90
35970;DHT22;22448;51.298;6.430;2024-03-07T03:40:32;3.10;99.90
35970;DHT22;22448;51.298;6.430;2024-03-07T03:43:01;3.10;99.90
35970;DHT22;22448;51.298;6.430;2024-03-07T03:45:28;3.10;99.90
35970;DHT22;22448;51.298;6.430;2024-03-07T03:47:55;3.10;99.90
35970;DHT22;22448;51.298;6.430;2024-03-07T03:50:23;3.10;99.90
35970;DHT22;22448;51.298;6.430;2024-03-07T03:52:50;3.10;99.90
35970;DHT22;22448;51.298;6.430;2024-03-07T03:55:17;3.00;99.90
35970;DHT22;22448;51.298;6.430;2024-03-07T03:57:45;3.00;99.90
35970;DHT22;22448;51.298;6.430;2024-03-07T04:00:17;3.00;99.90
35970;DHT22;22448;51.298;6.430;2024-03-07T04:02:46;3.00;99.90
35970;DHT22;22448;51.298;6.430;2024-03-07T04:05:18;3.00;99.90
35970;DHT22;22448;51.298;6.430;2024-03-07T04:07:46;3.00;99.90
35970;DHT22;22448;51.298;6.430;2024-03-07T04:10:15;3.10;99.90
35970;DHT22;22448;51.298;6.430;2024-03-07T04:12:43;3.10;99.90
35970;DHT22;22448;51.298;6.430;2024-03-07T04:15:12;3.10;99.90
35970;DHT22;22448;51.298;6.430;2024-03-07T04:17:40;3.00;99.90
35970;DHT22;22448;51.298;6.430;2024-03-07T04:20:08;2.90;99.90
35970;DHT22;22448;51.298;6.430;2024-03-07T04:22:38;2.90;99.90
35970;DHT22;22448;51.298;6.430;2024-03-07T04:25:08;2.90;99.90
35970;DHT22;22448;51.298;6.430;2024-03-07T04:27:38;2.90;99.90
35970;DHT22;22448;51.298;6.430;2024-03-07T04:30:08;2.90;99.90
35970;DHT22;22448;51.298;6.430;2024-03-07T04:32:38;2.90;99.90
35970;DHT22;22448;51.298;6.430;2024-03-07T04:35:06;3.00;99.90
35970;DHT22;22448;51.298;6.430;2024-03-07T04:37:34;3.00;99.90
35970;DHT22;22448;51.298;6.430;2024-03-07T04:40:05;3.00;99.90
35970;DHT22;22448;51.298;6.430;2024-03-07T04:42:48;3.00;99.90
35970;DHT22;22448;51.298;6.430;2024-03-07T04:45:17;3.00;99.90
35970;DHT22;22448;51.298;6.430;2024-03-07T04:47:45;3.10;99.90
35970;DHT22;22448;51.298;6.430;2024-03-07T04:50:17;3.00;99.90
35970;DHT22;22448;51.298;6.430;2024-03-07T04:52:46;3.00;99.90
35970;DHT22;22448;51.298;6.430;2024-03-07T04:55:16;3.00;99.90
35970;DHT22;22448;51.298;6.430;2024-03-07T04:57:43;3.00;99.90
35970;DHT22;22448;51.298;6.430;2024-03-07T05:00:12;3.10;99.90
35970;DHT22;22448;51.298;6.430;2024-03-07T05:02:44;2.90;99.90
35970;DHT22;22448;51.298;6.430;2024-03-07T05:05:12;2.90;99.90
35970;DHT22;22448;51.298;6.430;2024-03-07T05:07:40;2.80;99.90
35970;DHT22;22448;51.298;6.430;2024-03-07T05:10:07;2.80;99.90
35970;DHT22;22448;51.298;6.430;2024-03-07T05:12:35;2.70;99.90
35970;DHT22;22448;51.298;6.430;2024-03-07T05:15:05;2.70;99.90
35970;DHT22;22448;51.298;6.430;2024-03-07T05:17:32;2.70;99.90
35970;DHT22;22448;51.298;6.430;2024-03-07T05:20:02;2.70;99.90
35970;DHT22;22448;51.298;6.430;2024-03-07T05:22:30;2.60;99.90
35970;DHT22;22448;51.298;6.430;2024-03-07T05:24:58;2.60;99.90
35970;DHT22;22448;51.298;6.430;2024-03-07T05:27:25;2.60;99.90
35970;DHT22;22448;51.298;6.430;2024-03-07T05:29:54;2.50;99.90
35970;DHT22;22448;51.298;6.430;2024-03-07T05:32:26;2.50;99.90
35970;DHT22;22448;51.298;6.430;2024-03-07T05:34:54;2.50;99.90
35970;DHT22;22448;51.298;6.430;2024-03-07T05:37:22;2.40;99.90
35970;DHT22;22448;51.298;6.430;2024-03-07T05:39:50;2.40;99.90
35970;DHT22;22448;51.298;6.430;2024-03-07T05:42:18;2.50;99.90
35970;DHT22;22448;51.298;6.430;2024-03-07T05:44:45;2.50;99.90
35970;DHT22;22448;51.298;6.430;2024-03-07T05:47:13;2.50;99.90
35970;DHT22;22448;51.298;6.430;2024-03-07T05:49:44;2.50;99.90
35970;DHT22;22448;51.298;6.430;2024-03-07T05:52:11;2.50;99.90
35970;DHT22;22448;51.298;6.430;2024-03-07T05:54:38;2.50;99.90
35970;DHT22;22448;51.298;6.430;2024-03-07T05:57:05;2.60;99.90
35970;DHT22;22448;51.298;6.430;2024-03-07T05:59:35;2.50;99.90
35970;DHT22;22448;51.298;6.430;2024-03-07T06:02:02;2.50;99.90
35970;DHT22;22448;51.298;6.430;2024-03-07T06:04:30;2.40;99.90
35970;DHT22;22448;51.298;6.430;2024-03-07T06:06:59;2.30;99.90
35970;DHT22;22448;51.298;6.430;2024-03-07T06:09:26;2.40;99.90
35970;DHT22;22448;51.298;6.430;2024-03-07T06:11:53;2.30;99.90
35970;DHT22;22448;51.298;6.430;2024-03-07T06:14:20;2.30;99.90
35970;DHT22;22448;51.298;6.430;2024-03-07T06:16:47;2.20;99.90
35970;DHT22;22448;51.298;6.430;2024-03-07T06:19:15;2.20;99.90
35970;DHT22;22448;51.298;6.430;2024-03-07T06:21:42;2.10;99.90
35970;DHT22;22448;51.298;6.430;2024-03-07T06:24:09;2.10;99.90
35970;DHT22;22448;51.298;6.430;2024-03-07T06:26:38;2.20;99.90
35970;DHT22;22448;51.298;6.430;2024-03-07T06:29:16;2.40;99.90
35970;DHT22;22448;51.298;6.430;2024-03-07T06:31:45;2.40;99.90
35970;DHT22;22448;51.298;6.430;2024-03-07T06:34:15;2.50;99.90
35970;DHT22;22448;51.298;6.430;2024-03-07T06:36:42;2.50;99.90
35970;DHT22;22448;51.298;6.430;2024-03-07T06:39:09;2.50;99.90
35970;DHT22;22448;51.298;6.430;2024-03-07T06:41:40;2.50;99.90
35970;DHT22;22448;51.298;6.430;2024-03-07T06:44:08;2.50;99.90
35970;DHT22;22448;51.298;6.430;2024-03-07T06:46:37;2.50;99.90
35970;DHT22;22448;51.298;6.430;2024-03-07T06:49:03;2.60;99.90
35970;DHT22;22448;51.298;6.430;2024-03-07T06:51:37;2.80;99.90
35970;DHT22;22448;51.298;6.430;2024-03-07T06:54:06;2.90;99.90
35970;DHT22;22448;51.298;6.430;2024-03-07T06:56:33;3.00;99.90
35970;DHT22;22448;51.298;6.430;2024-03-07T06:59:01;3.20;99.90
35970;DHT22;22448;51.298;6.430;2024-03-07T07:01:31;3.30;99.90
35970;DHT22;22448;51.298;6.430;2024-03-07T07:04:01;3.40;99.90
35970;DHT22;22448;51.298;6.430;2024-03-07T07:06:31;3.40;99.90
35970;DHT22;22448;51.298;6.430;2024-03-07T07:08:58;3.50;99.90
35970;DHT22;22448;51.298;6.430;2024-03-07T07:11:26;3.80;99.90
35970;DHT22;22448;51.298;6.430;2024-03-07T07:13:59;4.10;99.90
35970;DHT22;22448;51.298;6.430;2024-03-07T07:16:26;4.60;99.90
35970;DHT22;22448;51.298;6.430;2024-03-07T07:18:54;5.20;99.90
35970;DHT22;22448;51.298;6.430;2024-03-07T07:21:22;5.60;99.90
35970;DHT22;22448;51.298;6.430;2024-03-07T07:23:49;5.50;99.90
35970;DHT22;22448;51.298;6.430;2024-03-07T07:26:16;5.70;99.90
35970;DHT22;22448;51.298;6.430;2024-03-07T07:28:43;6.00;99.90
35970;DHT22;22448;51.298;6.430;2024-03-07T07:31:11;5.90;99.90
35970;DHT22;22448;51.298;6.430;2024-03-07T07:33:38;5.90;99.90
35970;DHT22;22448;51.298;6.430;2024-03-07T07:36:05;5.90;99.90
35970;DHT22;22448;51.298;6.430;2024-03-07T07:38:33;6.30;99.90
35970;DHT22;22448;51.298;6.430;2024-03-07T07:41:00;6.70;99.90
35970;DHT22;22448;51.298;6.430;2024-03-07T07:43:28;6.60;99.90
35970;DHT22;22448;51.298;6.430;2024-03-07T07:46:08;6.20;99.90
35970;DHT22;22448;51.298;6.430;2024-03-07T07:48:35;6.00;99.90
35970;DHT22;22448;51.298;6.430;2024-03-07T07:51:03;6.50;99.90
35970;DHT22;22448;51.298;6.430;2024-03-07T07:53:33;6.40;99.90
35970;DHT22;22448;51.298;6.430;2024-03-07T07:56:01;6.70;99.90
35970;DHT22;22448;51.298;6.430;2024-03-07T07:58:28;6.80;99.90
35970;DHT22;22448;51.298;6.430;2024-03-07T08:00:55;6.70;99.90
35970;DHT22;22448;51.298;6.430;2024-03-07T08:03:23;6.40;99.90
35970;DHT22;22448;51.298;6.430;2024-03-07T08:05:51;6.40;99.90
35970;DHT22;22448;51.298;6.430;2024-03-07T08:08:18;6.50;99.90
35970;DHT22;22448;51.298;6.430;2024-03-07T08:10:47;6.90;99.90
35970;DHT22;22448;51.298;6.430;2024-03-07T08:13:15;6.90;99.90
35970;DHT22;22448;51.298;6.430;2024-03-07T08:15:42;6.80;99.90
35970;DHT22;22448;51.298;6.430;2024-03-07T08:18:09;7.20;99.90
35970;DHT22;22448;51.298;6.430;2024-03-07T08:20:39;7.50;99.90
35970;DHT22;22448;51.298;6.430;2024-03-07T08:23:08;7.80;99.90
35970;DHT22;22448;51.298;6.430;2024-03-07T08:25:35;8.40;99.90
35970;DHT22;22448;51.298;6.430;2024-03-07T08:28:03;8.00;99.90
35970;DHT22;22448;51.298;6.430;2024-03-07T08:30:30;7.40;99.90
35970;DHT22;22448;51.298;6.430;2024-03-07T08:32:57;7.00;99.90
35970;DHT22;22448;51.298;6.430;2024-03-07T08:35:26;6.80;99.90
35970;DHT22;22448;51.298;6.430;2024-03-07T08:37:54;6.70;99.90
35970;DHT22;22448;51.298;6.430;2024-03-07T08:40:27;6.70;99.90
35970;DHT22;22448;51.298;6.430;2024-03-07T08:42:58;6.80;99.90
35970;DHT22;22448;51.298;6.430;2024-03-07T08:45:27;6.90;99.90
35970;DHT22;22448;51.298;6.430;2024-03-07T08:47:56;7.20;99.90
35970;DHT22;22448;51.298;6.430;2024-03-07T08:50:26;7.70;99.90
35970;DHT22;22448;51.298;6.430;2024-03-07T08:52:54;7.70;99.90
35970;DHT22;22448;51.298;6.430;2024-03-07T08:55:25;7.70;99.90
35970;DHT22;22448;51.298;6.430;2024-03-07T08:57:53;8.10;99.90
35970;DHT22;22448;51.298;6.430;2024-03-07T09:00:20;8.50;99.90
35970;DHT22;22448;51.298;6.430;2024-03-07T09:02:56;8.60;99.90
35970;DHT22;22448;51.298;6.430;2024-03-07T09:05:30;8.50;99.90
35970;DHT22;22448;51.298;6.430;2024-03-07T09:08:01;8.80;99.90
35970;DHT22;22448;51.298;6.430;2024-03-07T09:10:29;9.10;99.90
35970;DHT22;22448;51.298;6.430;2024-03-07T09:12:57;9.40;99.90
35970;DHT22;22448;51.298;6.430;2024-03-07T09:15:25;9.10;99.90
35970;DHT22;22448;51.298;6.430;2024-03-07T09:17:52;9.30;99.90
35970;DHT22;22448;51.298;6.430;2024-03-07T09:20:21;9.40;99.90
35970;DHT22;22448;51.298;6.430;2024-03-07T09:22:48;9.60;99.90
35970;DHT22;22448;51.298;6.430;2024-03-07T09:25:17;9.50;99.90
35970;DHT22;22448;51.298;6.430;2024-03-07T09:27:46;9.40;99.90
35970;DHT22;22448;51.298;6.430;2024-03-07T09:30:14;9.10;99.90
35970;DHT22;22448;51.298;6.430;2024-03-07T09:32:45;9.00;99.90
35970;DHT22;22448;51.298;6.430;2024-03-07T09:35:12;8.90;99.90
35970;DHT22;22448;51.298;6.430;2024-03-07T09:37:41;8.80;99.90
35970;DHT22;22448;51.298;6.430;2024-03-07T09:40:09;8.80;99.90
35970;DHT22;22448;51.298;6.430;2024-03-07T09:42:48;8.70;99.90
35970;DHT22;22448;51.298;6.430;2024-03-07T09:45:17;8.50;99.90
35970;DHT22;22448;51.298;6.430;2024-03-07T09:47:48;8.60;99.90
35970;DHT22;22448;51.298;6.430;2024-03-07T09:50:19;8.80;99.90
35970;DHT22;22448;51.298;6.430;2024-03-07T09:52:48;8.70;99.90
35970;DHT22;22448;51.298;6.430;2024-03-07T09:55:19;8.50;99.90
35970;DHT22;22448;51.298;6.430;2024-03-07T09:57:48;8.60;99.90
35970;DHT22;22448;51.298;6.430;2024-03-07T10:00:18;8.80;99.90
35970;DHT22;22448;51.298;6.430;2024-03-07T10:03:05;8.80;99.90
35970;DHT22;22448;51.298;6.430;2024-03-07T10:05:33;8.70;99.90
35970;DHT22;22448;51.298;6.430;2024-03-07T10:08:01;8.90;99.90
35970;DHT22;22448;51.298;6.430;2024-03-07T10:10:29;9.00;99.90
35970;DHT22;22448;51.298;6.430;2024-03-07T10:12:58;9.10;99.90
35970;DHT22;22448;51.298;6.430;2024-03-07T10:15:31;9.20;99.90
35970;DHT22;22448;51.298;6.430;2024-03-07T10:18:00;9.40;99.90
35970;DHT22;22448;51.298;6.430;2024-03-07T10:20:28;9.60;99.90
35970;DHT22;22448;51.298;6.430;2024-03-07T10:22:56;9.60;99.90
35970;DHT22;22448;51.298;6.430;2024-03-07T10:25:24;9.30;99.90
35970;DHT22;22448;51.298;6.430;2024-03-07T10:27:54;9.30;99.90
35970;DHT22;22448;51.298;6.430;2024-03-07T10:30:21;9.30;99.90
35970;DHT22;22448;51.298;6.430;2024-03-07T10:32:59;9.00;99.90
35970;DHT22;22448;51.298;6.430;2024-03-07T10:35:28;9.00;99.90
35970;DHT22;22448;51.298;6.430;2024-03-07T10:37:57;8.90;99.90
35970;DHT22;22448;51.298;6.430;2024-03-07T10:40:28;8.70;99.90
35970;DHT22;22448;51.298;6.430;2024-03-07T10:42:57;8.80;99.90
35970;DHT22;22448;51.298;6.430;2024-03-07T10:45:28;8.70;99.90
35970;DHT22;22448;51.298;6.430;2024-03-07T10:47:57;8.60;99.90
35970;DHT22;22448;51.298;6.430;2024-03-07T10:59:19;8.60;99.90
35970;DHT22;22448;51.298;6.430;2024-03-07T11:04:24;8.70;99.90
35970;DHT22;22448;51.298;6.430;2024-03-07T11:06:53;8.70;99.90
35970;DHT22;22448;51.298;6.430;2024-03-07T11:09:21;8.70;99.90
35970;DHT22;22448;51.298;6.430;2024-03-07T11:11:51;8.90;99.90
35970;DHT22;22448;51.298;6.430;2024-03-07T11:14:19;9.00;99.90
35970;DHT22;22448;51.298;6.430;2024-03-07T11:16:47;8.90;99.90
35970;DHT22;22448;51.298;6.430;2024-03-07T11:19:41;9.00;99.90
35970;DHT22;22448;51.298;6.430;2024-03-07T11:22:08;9.10;99.90
35970;DHT22;22448;51.298;6.430;2024-03-07T11:25:03;9.30;99.90
35970;DHT22;22448;51.298;6.430;2024-03-07T11:27:37;9.40;99.90
35970;DHT22;22448;51.298;6.430;2024-03-07T11:30:06;9.50;99.90
35970;DHT22;22448;51.298;6.430;2024-03-07T11:32:37;9.70;99.90
35970;DHT22;22448;51.298;6.430;2024-03-07T11:35:05;9.60;99.90
35970;DHT22;22448;51.298;6.430;2024-03-07T11:37:44;9.40;99.90
35970;DHT22;22448;51.298;6.430;2024-03-07T11:42:54;9.30;99.90
35970;DHT22;22448;51.298;6.430;2024-03-07T11:45:26;9.40;99.90
35970;DHT22;22448;51.298;6.430;2024-03-07T11:47:57;9.50;99.90
35970;DHT22;22448;51.298;6.430;2024-03-07T11:50:31;9.50;99.90
35970;DHT22;22448;51.298;6.430;2024-03-07T11:53:03;9.30;99.90
35970;DHT22;22448;51.298;6.430;2024-03-07T11:55:33;9.10;99.90
35970;DHT22;22448;51.298;6.430;2024-03-07T11:58:20;9.00;99.90
35970;DHT22;22448;51.298;6.430;2024-03-07T12:00:50;9.20;99.90
35970;DHT22;22448;51.298;6.430;2024-03-07T12:03:20;9.40;99.90
35970;DHT22;22448;51.298;6.430;2024-03-07T12:05:52;9.60;99.90
35970;DHT22;22448;51.298;6.430;2024-03-07T12:08:20;9.80;99.90
35970;DHT22;22448;51.298;6.430;2024-03-07T12:10:52;10.00;99.90
35970;DHT22;22448;51.298;6.430;2024-03-07T12:13:25;10.10;99.90
35970;DHT22;22448;51.298;6.430;2024-03-07T12:15:53;10.30;99.90
35970;DHT22;22448;51.298;6.430;2024-03-07T12:18:23;10.40;99.90
35970;DHT22;22448;51.298;6.430;2024-03-07T12:20:51;10.60;99.90
35970;DHT22;22448;51.298;6.430;2024-03-07T12:23:23;10.70;99.90
35970;DHT22;22448;51.298;6.430;2024-03-07T12:26:04;10.60;99.90
35970;DHT22;22448;51.298;6.430;2024-03-07T12:28:33;10.80;99.90
35970;DHT22;22448;51.298;6.430;2024-03-07T12:31:02;10.80;99.90
35970;DHT22;22448;51.298;6.430;2024-03-07T12:33:30;10.70;99.90
35970;DHT22;22448;51.298;6.430;2024-03-07T12:36:02;10.20;99.90
35970;DHT22;22448;51.298;6.430;2024-03-07T12:38:37;10.30;99.90
35970;DHT22;22448;51.298;6.430;2024-03-07T12:41:09;10.20;99.90
35970;DHT22;22448;51.298;6.430;2024-03-07T12:43:44;10.30;99.90
35970;DHT22;22448;51.298;6.430;2024-03-07T12:46:12;10.10;99.90
35970;DHT22;22448;51.298;6.430;2024-03-07T12:48:40;10.10;99.90
35970;DHT22;22448;51.298;6.430;2024-03-07T12:51:09;10.00;99.90
35970;DHT22;22448;51.298;6.430;2024-03-07T12:53:37;10.00;99.90
35970;DHT22;22448;51.298;6.430;2024-03-07T12:56:04;10.00;99.90
35970;DHT22;22448;51.298;6.430;2024-03-07T12:58:32;9.80;99.90
35970;DHT22;22448;51.298;6.430;2024-03-07T13:01:00;9.80;99.90
35970;DHT22;22448;51.298;6.430;2024-03-07T13:03:27;9.80;99.90
35970;DHT22;22448;51.298;6.430;2024-03-07T13:05:58;9.80;99.90
35970;DHT22;22448;51.298;6.430;2024-03-07T13:08:30;9.80;99.90
35970;DHT22;22448;51.298;6.430;2024-03-07T13:10:58;9.80;99.90
35970;DHT22;22448;51.298;6.430;2024-03-07T13:13:28;9.70;99.90
35970;DHT22;22448;51.298;6.430;2024-03-07T13:15:56;9.80;99.90
35970;DHT22;22448;51.298;6.430;2024-03-07T13:18:23;9.80;99.90
35970;DHT22;22448;51.298;6.430;2024-03-07T13:20:51;9.80;99.90
35970;DHT22;22448;51.298;6.430;2024-03-07T13:23:19;9.70;99.90
35970;DHT22;22448;51.298;6.430;2024-03-07T13:25:46;9.60;99.90
35970;DHT22;22448;51.298;6.430;2024-03-07T13:28:15;9.60;99.90
35970;DHT22;22448;51.298;6.430;2024-03-07T13:30:51;9.60;99.90
35970;DHT22;22448;51.298;6.430;2024-03-07T13:33:21;9.60;99.90
35970;DHT22;22448;51.298;6.430;2024-03-07T13:35:52;9.60;99.90
35970;DHT22;22448;51.298;6.430;2024-03-07T13:38:20;9.80;99.90
35970;DHT22;22448;51.298;6.430;2024-03-07T13:40:48;9.80;99.90
35970;DHT22;22448;51.298;6.430;2024-03-07T13:43:16;9.80;99.90
35970;DHT22;22448;51.298;6.430;2024-03-07T13:45:45;9.90;99.90
35970;DHT22;22448;51.298;6.430;2024-03-07T13:48:15;9.80;99.90
35970;DHT22;22448;51.298;6.430;2024-03-07T13:50:45;9.80;99.90
35970;DHT22;22448;51.298;6.430;2024-03-07T13:53:26;9.60;99.90
35970;DHT22;22448;51.298;6.430;2024-03-07T13:59:09;9.50;99.90
35970;DHT22;22448;51.298;6.430;2024-03-07T14:13:26;9.20;99.90
35970;DHT22;22448;51.298;6.430;2024-03-07T14:22:30;9.20;99.90
35970;DHT22;22448;51.298;6.430;2024-03-07T14:29:00;9.40;99.90
35970;DHT22;22448;51.298;6.430;2024-03-07T14:31:04;9.50;99.90
35970;DHT22;22448;51.298;6.430;2024-03-07T14:33:54;9.50;99.90
35970;DHT22;22448;51.298;6.430;2024-03-07T14:37:17;9.50;99.90
35970;DHT22;22448;51.298;6.430;2024-03-07T14:39:49;9.50;99.90
35970;DHT22;22448;51.298;6.430;2024-03-07T14:42:19;9.50;99.90
35970;DHT22;22448;51.298;6.430;2024-03-07T14:44:46;9.40;99.90
35970;DHT22;22448;51.298;6.430;2024-03-07T14:47:19;9.30;99.90
35970;DHT22;22448;51.298;6.430;2024-03-07T14:49:47;9.30;99.90
35970;DHT22;22448;51.298;6.430;2024-03-07T14:52:14;9.30;99.90
35970;DHT22;22448;51.298;6.430;2024-03-07T14:54:42;9.30;99.90
35970;DHT22;22448;51.298;6.430;2024-03-07T14:57:10;9.30;99.90
35970;DHT22;22448;51.298;6.430;2024-03-07T14:59:37;9.40;99.90
35970;DHT22;22448;51.298;6.430;2024-03-07T15:02:08;9.40;99.90
35970;DHT22;22448;51.298;6.430;2024-03-07T15:04:37;9.40;99.90
35970;DHT22;22448;51.298;6.430;2024-03-07T15:07:06;9.30;99.90
35970;DHT22;22448;51.298;6.430;2024-03-07T15:09:36;9.30;99.90
35970;DHT22;22448;51.298;6.430;2024-03-07T15:12:05;9.20;99.90
35970;DHT22;22448;51.298;6.430;2024-03-07T15:14:34;9.20;99.90
35970;DHT22;22448;51.298;6.430;2024-03-07T15:17:06;9.20;99.90
35970;DHT22;22448;51.298;6.430;2024-03-07T15:19:34;9.20;99.90
35970;DHT22;22448;51.298;6.430;2024-03-07T15:22:04;9.10;99.90
35970;DHT22;22448;51.298;6.430;2024-03-07T15:24:32;9.10;99.90
35970;DHT22;22448;51.298;6.430;2024-03-07T15:26:59;9.20;99.90
35970;DHT22;22448;51.298;6.430;2024-03-07T15:29:27;9.10;99.90
35970;DHT22;22448;51.298;6.430;2024-03-07T15:31:54;9.20;99.90
35970;DHT22;22448;51.298;6.430;2024-03-07T15:34:23;9.10;99.90
35970;DHT22;22448;51.298;6.430;2024-03-07T15:36:59;9.10;99.90
35970;DHT22;22448;51.298;6.430;2024-03-07T15:39:28;9.10;99.90
35970;DHT22;22448;51.298;6.430;2024-03-07T15:41:57;9.00;99.90
35970;DHT22;22448;51.298;6.430;2024-03-07T15:44:26;9.00;99.90
35970;DHT22;22448;51.298;6.430;2024-03-07T15:46:53;9.00;99.90
35970;DHT22;22448;51.298;6.430;2024-03-07T15:49:20;9.00;99.90
35970;DHT22;22448;51.298;6.430;2024-03-07T15:51:48;9.00;99.90
35970;DHT22;22448;51.298;6.430;2024-03-07T15:54:15;9.00;99.90
35970;DHT22;22448;51.298;6.430;2024-03-07T15:56:45;8.90;99.90
35970;DHT22;22448;51.298;6.430;2024-03-07T15:59:12;8.80;99.90
35970;DHT22;22448;51.298;6.430;2024-03-07T16:01:39;8.70;99.90
35970;DHT22;22448;51.298;6.430;2024-03-07T16:04:06;8.60;99.90
35970;DHT22;22448;51.298;6.430;2024-03-07T16:06:33;8.50;99.90
35970;DHT22;22448;51.298;6.430;2024-03-07T16:09:01;8.40;99.90
35970;DHT22;22448;51.298;6.430;2024-03-07T16:11:28;8.30;99.90
35970;DHT22;22448;51.298;6.430;2024-03-07T16:13:56;8.30;99.90
35970;DHT22;22448;51.298;6.430;2024-03-07T16:16:23;8.30;99.90
35970;DHT22;22448;51.298;6.430;2024-03-07T16:18:50;8.30;99.90
35970;DHT22;22448;51.298;6.430;2024-03-07T16:21:19;8.30;99.90
35970;DHT22;22448;51.298;6.430;2024-03-07T16:23:46;8.30;99.90
35970;DHT22;22448;51.298;6.430;2024-03-07T16:26:14;8.30;99.90
35970;DHT22;22448;51.298;6.430;2024-03-07T16:28:43;8.30;99.90
35970;DHT22;22448;51.298;6.430;2024-03-07T16:31:10;8.20;99.90
35970;DHT22;22448;51.298;6.430;2024-03-07T16:33:37;8.20;99.90
35970;DHT22;22448;51.298;6.430;2024-03-07T16:36:05;8.20;99.90